Time;durP1;ratioP1;P1;durP2;ratioP2;P2;SDS_P1;SDS_P2;PMS_P1;PMS_P2;Temp;Humidity;BMP_temperature;BMP_pressure;BME280_temperature;BME280_humidity;BME280_pressure;Samples;Min_cycle;Max_cycle;Signal;HPM_P1;HPM_P2
2022/09/29 00:01:24;;;;;;;16.05;3.30;;;14.00;99.90;;;;;;5072056;28;20054;-62
2022/09/29 00:03:50;;;;;;;10.95;2.78;;;14.00;99.90;;;;;;5072090;28;20035;-62
2022/09/29 00:06:17;;;;;;;15.20;2.90;;;14.00;99.90;;;;;;5072477;28;20029;-62
2022/09/29 00:08:43;;;;;;;11.43;3.08;;;13.90;99.90;;;;;;5071959;28;20394;-62
2022/09/29 00:11:13;;;;;;;9.90;2.90;;;13.90;99.90;;;;;;5071820;28;20017;-62
2022/09/29 00:13:39;;;;;;;9.38;2.67;;;13.90;99.90;;;;;;5071105;28;20020;-62
2022/09/29 00:16:05;;;;;;;14.70;3.25;;;13.90;99.90;;;;;;5071666;28;20128;-62
2022/09/29 00:18:33;;;;;;;12.57;2.63;;;13.90;99.90;;;;;;5072038;28;20207;-62
2022/09/29 00:21:02;;;;;;;12.20;2.92;;;13.90;99.90;;;;;;5072087;28;20025;-62
2022/09/29 00:23:29;;;;;;;11.25;2.90;;;13.90;99.90;;;;;;5071836;28;20426;-62
2022/09/29 00:26:04;;;;;;;11.52;2.90;;;13.90;99.90;;;;;;5071783;28;20025;-62
2022/09/29 00:28:31;;;;;;;11.85;2.83;;;13.90;99.90;;;;;;5072005;28;20123;-63
2022/09/29 00:30:59;;;;;;;13.30;3.10;;;13.80;99.90;;;;;;5071595;28;20107;-62
2022/09/29 00:33:27;;;;;;;9.00;2.67;;;13.80;99.90;;;;;;5071679;28;20024;-62
2022/09/29 00:36:08;;;;;;;10.18;2.80;;;13.80;99.90;;;;;;5071824;28;20107;-62
2022/09/29 00:38:34;;;;;;;11.95;3.08;;;13.80;99.90;;;;;;5070272;28;20028;-62
2022/09/29 00:41:00;;;;;;;9.65;2.80;;;13.80;99.90;;;;;;5071448;28;20025;-62
2022/09/29 00:43:47;;;;;;;12.38;3.00;;;13.80;99.90;;;;;;5071627;28;20051;-62
2022/09/29 00:46:16;;;;;;;12.32;2.95;;;13.80;99.90;;;;;;5071528;28;20104;-62
2022/09/29 00:48:42;;;;;;;9.90;2.65;;;13.80;99.90;;;;;;5071865;28;20060;-61
2022/09/29 00:51:08;;;;;;;9.90;2.72;;;13.70;99.90;;;;;;5071585;28;20076;-62
2022/09/29 00:53:35;;;;;;;13.43;3.58;;;13.80;99.90;;;;;;5071458;28;20078;-62
2022/09/29 00:56:13;;;;;;;11.60;2.97;;;13.70;99.90;;;;;;5071293;28;20517;-61
2022/09/29 00:58:53;;;;;;;8.57;2.88;;;13.70;99.90;;;;;;5071503;28;20067;-61
2022/09/29 01:01:24;;;;;;;8.38;2.60;;;13.70;99.90;;;;;;5071395;28;20025;-61
2022/09/29 01:03:54;;;;;;;9.45;2.80;;;13.70;99.90;;;;;;5071484;28;20398;-61
2022/09/29 01:06:49;;;;;;;8.52;2.67;;;13.70;99.90;;;;;;5071562;28;20024;-61
2022/09/29 01:09:18;;;;;;;10.63;2.90;;;13.70;99.90;;;;;;5067295;28;20048;-61
2022/09/29 01:11:44;;;;;;;9.95;2.78;;;13.60;99.90;;;;;;5071366;28;20356;-61
2022/09/29 01:14:11;;;;;;;10.52;3.00;;;13.70;99.90;;;;;;5071295;28;20029;-61
2022/09/29 01:16:40;;;;;;;10.38;2.67;;;13.70;99.90;;;;;;5071152;28;20049;-61
2022/09/29 01:19:12;;;;;;;9.23;3.10;;;13.60;99.90;;;;;;5071359;28;20059;-62
2022/09/29 01:22:05;;;;;;;8.85;2.88;;;13.60;99.90;;;;;;5071292;28;20028;-63
2022/09/29 01:24:52;;;;;;;13.43;3.20;;;13.60;99.90;;;;;;5070910;28;20025;-63
2022/09/29 01:27:42;;;;;;;8.45;2.70;;;13.60;99.90;;;;;;5071185;28;20435;-62
2022/09/29 01:30:19;;;;;;;11.52;3.10;;;13.60;99.90;;;;;;5071187;28;20033;-62
2022/09/29 01:33:33;;;;;;;10.27;3.05;;;13.60;99.90;;;;;;5071166;28;20108;-63
2022/09/29 01:36:10;;;;;;;12.40;3.03;;;13.60;99.90;;;;;;5057794;28;20107;-62
2022/09/29 01:38:48;;;;;;;11.05;2.83;;;13.60;99.90;;;;;;5071212;28;20094;-63
2022/09/29 01:41:47;;;;;;;10.38;2.40;;;13.60;99.90;;;;;;5071287;28;20103;-62
2022/09/29 01:44:32;;;;;;;14.77;3.00;;;13.60;99.90;;;;;;5074335;28;20119;-62
2022/09/29 01:47:03;;;;;;;8.93;2.72;;;13.60;99.90;;;;;;5074577;28;20028;-63
2022/09/29 01:49:34;;;;;;;6.45;2.10;;;13.60;99.90;;;;;;5074580;28;20028;-63
2022/09/29 01:52:19;;;;;;;10.18;2.80;;;13.60;99.90;;;;;;5074323;28;20089;-63
2022/09/29 01:54:47;;;;;;;10.77;2.63;;;13.60;99.90;;;;;;5074151;28;20028;-62
2022/09/29 01:57:28;;;;;;;11.25;2.63;;;13.60;99.90;;;;;;5074496;28;20025;-62
2022/09/29 02:00:04;;;;;;;11.60;2.85;;;13.60;99.90;;;;;;5074492;28;20096;-62
2022/09/29 02:02:39;;;;;;;11.20;2.63;;;13.70;99.90;;;;;;5073375;28;20052;-62
2022/09/29 02:05:11;;;;;;;16.75;3.08;;;13.70;99.90;;;;;;5074372;28;20040;-62
2022/09/29 02:07:41;;;;;;;13.88;3.15;;;13.60;99.90;;;;;;5073984;28;20029;-62
2022/09/29 02:10:29;;;;;;;12.43;3.03;;;13.70;99.90;;;;;;5073822;28;20082;-61
2022/09/29 02:12:56;;;;;;;12.07;2.65;;;13.70;99.90;;;;;;5074384;28;20117;-62
2022/09/29 02:15:26;;;;;;;10.90;2.60;;;13.70;99.90;;;;;;5074001;28;20021;-60
2022/09/29 02:17:57;;;;;;;11.48;2.85;;;13.70;99.90;;;;;;5074320;28;20050;-62
2022/09/29 02:20:23;;;;;;;11.95;3.10;;;13.70;99.90;;;;;;5073695;28;20132;-62
2022/09/29 02:22:49;;;;;;;7.72;2.65;;;13.70;99.90;;;;;;5073130;28;20564;-62
2022/09/29 02:25:17;;;;;;;9.15;2.72;;;13.70;99.90;;;;;;5074059;28;20399;-62
2022/09/29 02:27:44;;;;;;;9.48;2.50;;;13.70;99.90;;;;;;5073592;28;20392;-62
2022/09/29 02:30:11;;;;;;;9.65;2.40;;;13.70;99.90;;;;;;5073906;28;20032;-62
2022/09/29 02:32:37;;;;;;;8.50;2.10;;;13.60;99.90;;;;;;5073660;28;20021;-62
2022/09/29 02:35:06;;;;;;;11.90;2.42;;;13.70;99.90;;;;;;5073305;28;20023;-62
2022/09/29 02:37:35;;;;;;;7.28;2.17;;;13.60;99.90;;;;;;5073668;28;20021;-62
2022/09/29 02:40:25;;;;;;;8.68;2.63;;;13.60;99.90;;;;;;5073330;28;20107;-62
2022/09/29 02:43:30;;;;;;;10.73;2.10;;;13.60;99.90;;;;;;5073519;28;20024;-61
2022/09/29 02:46:27;;;;;;;11.05;2.50;;;13.60;99.90;;;;;;5073264;28;20033;-61
2022/09/29 02:49:10;;;;;;;8.70;2.50;;;13.60;99.90;;;;;;5073187;28;20044;-62
2022/09/29 02:51:45;;;;;;;10.02;2.42;;;13.50;99.90;;;;;;5073415;28;20107;-62
2022/09/29 02:54:31;;;;;;;10.05;2.97;;;13.50;99.90;;;;;;5073274;28;20078;-61
2022/09/29 02:57:18;;;;;;;11.13;2.80;;;13.50;99.90;;;;;;5073326;28;20053;-61
2022/09/29 03:00:09;;;;;;;12.18;3.10;;;13.50;99.90;;;;;;5073170;28;20024;-62
2022/09/29 03:02:37;;;;;;;8.60;2.45;;;13.50;99.90;;;;;;5073194;28;20099;-61
2022/09/29 03:05:15;;;;;;;16.20;3.35;;;13.40;99.90;;;;;;5073067;28;20029;-62
2022/09/29 03:07:41;;;;;;;16.63;3.50;;;13.40;99.90;;;;;;5072797;28;20487;-62
2022/09/29 03:10:08;;;;;;;10.35;3.05;;;13.40;99.90;;;;;;5073128;28;20102;-62
2022/09/29 03:12:34;;;;;;;12.30;2.92;;;13.40;99.90;;;;;;5072819;28;20376;-62
2022/09/29 03:15:00;;;;;;;11.65;2.90;;;13.40;99.90;;;;;;5072811;28;20039;-62
2022/09/29 03:17:26;;;;;;;12.40;3.38;;;13.40;99.90;;;;;;5072836;28;20059;-62
2022/09/29 03:19:52;;;;;;;15.98;3.10;;;13.40;99.90;;;;;;5072668;28;20025;-61
2022/09/29 03:22:18;;;;;;;14.02;3.20;;;13.40;99.90;;;;;;5072479;28;20112;-61
2022/09/29 03:24:44;;;;;;;12.82;2.80;;;13.30;99.90;;;;;;5073067;28;20046;-61
2022/09/29 03:27:10;;;;;;;14.73;2.95;;;13.30;99.90;;;;;;5072230;28;20394;-62
2022/09/29 03:29:36;;;;;;;11.50;3.05;;;13.30;99.90;;;;;;5072183;28;20108;-61
2022/09/29 03:32:03;;;;;;;16.23;3.13;;;13.20;99.90;;;;;;5072089;28;20032;-61
2022/09/29 03:34:29;;;;;;;17.13;3.53;;;13.20;99.90;;;;;;5072379;28;20020;-61
2022/09/29 03:36:55;;;;;;;17.98;3.35;;;13.20;99.90;;;;;;5072255;28;20379;-62
2022/09/29 03:39:21;;;;;;;12.80;3.17;;;13.20;99.90;;;;;;5072356;28;20032;-61
2022/09/29 03:41:47;;;;;;;17.40;3.55;;;13.20;99.90;;;;;;5072379;28;20558;-61
2022/09/29 03:44:12;;;;;;;15.52;3.25;;;13.20;99.90;;;;;;5072653;28;20017;-62
2022/09/29 03:46:38;;;;;;;17.15;3.85;;;13.20;99.90;;;;;;5072377;28;20074;-62
2022/09/29 03:49:04;;;;;;;16.13;3.15;;;13.10;99.90;;;;;;5071764;28;20044;-62
2022/09/29 03:51:30;;;;;;;16.08;3.50;;;13.20;99.90;;;;;;5072194;28;20040;-61
2022/09/29 03:53:56;;;;;;;16.17;3.50;;;13.10;99.90;;;;;;5072275;28;20028;-61
2022/09/29 03:56:21;;;;;;;15.10;3.22;;;13.10;99.90;;;;;;5072220;28;20035;-61
2022/09/29 03:58:47;;;;;;;16.15;3.95;;;13.10;99.90;;;;;;5072438;28;20036;-62
2022/09/29 04:01:13;;;;;;;14.93;3.55;;;13.10;99.90;;;;;;5071869;28;20031;-62
2022/09/29 04:03:39;;;;;;;13.98;3.35;;;13.00;99.90;;;;;;5071798;28;20033;-61
2022/09/29 04:06:04;;;;;;;16.20;3.55;;;13.00;99.90;;;;;;5071580;28;20020;-61
2022/09/29 04:08:30;;;;;;;10.48;2.90;;;13.00;99.90;;;;;;5072093;28;20036;-62
2022/09/29 04:10:56;;;;;;;10.98;3.35;;;13.00;99.90;;;;;;5071988;28;20086;-62
2022/09/29 04:13:22;;;;;;;17.77;3.40;;;13.00;99.90;;;;;;5071950;28;20086;-62
2022/09/29 04:15:48;;;;;;;10.65;2.90;;;13.00;99.90;;;;;;5071609;28;20108;-62
2022/09/29 04:18:14;;;;;;;14.73;3.55;;;13.00;99.90;;;;;;5071609;28;20032;-62
2022/09/29 04:20:40;;;;;;;13.50;3.20;;;13.00;99.90;;;;;;5071825;28;20025;-61
2022/09/29 04:23:05;;;;;;;12.60;3.15;;;13.00;99.90;;;;;;5070626;28;20056;-62
2022/09/29 04:25:32;;;;;;;12.15;2.90;;;12.90;99.90;;;;;;5072167;28;20017;-62
2022/09/29 04:27:58;;;;;;;16.38;2.95;;;12.80;99.90;;;;;;5071863;28;20119;-62
2022/09/29 04:30:24;;;;;;;12.18;3.22;;;12.80;99.90;;;;;;5071798;28;20012;-62
2022/09/29 04:32:50;;;;;;;13.65;3.00;;;12.80;99.90;;;;;;5070277;28;20461;-62
2022/09/29 04:35:16;;;;;;;13.63;4.03;;;12.80;99.90;;;;;;5072154;28;20031;-62
2022/09/29 04:37:41;;;;;;;14.15;3.45;;;12.80;99.90;;;;;;5071829;28;20032;-62
2022/09/29 04:40:08;;;;;;;12.13;3.47;;;12.80;99.90;;;;;;5071649;28;20100;-62
2022/09/29 04:42:34;;;;;;;15.00;3.60;;;12.80;99.90;;;;;;5071984;28;20021;-62
2022/09/29 04:44:59;;;;;;;16.20;3.55;;;12.80;99.90;;;;;;5071559;28;20032;-62
2022/09/29 04:47:25;;;;;;;12.77;3.15;;;12.80;99.90;;;;;;5071221;28;20525;-62
2022/09/29 04:49:51;;;;;;;15.50;3.40;;;12.80;99.90;;;;;;5071633;28;20024;-62
2022/09/29 04:52:17;;;;;;;16.30;3.78;;;12.80;99.90;;;;;;5071621;28;20094;-62
2022/09/29 04:54:42;;;;;;;13.30;3.58;;;12.90;99.90;;;;;;5071890;28;20111;-62
2022/09/29 04:57:09;;;;;;;9.25;3.45;;;12.80;99.90;;;;;;5071608;28;20032;-62
2022/09/29 04:59:35;;;;;;;11.35;3.20;;;12.90;99.90;;;;;;5071439;28;20379;-62
2022/09/29 05:02:01;;;;;;;14.20;3.33;;;12.80;99.90;;;;;;5071075;28;20035;-62
2022/09/29 05:04:26;;;;;;;17.55;3.70;;;12.90;99.90;;;;;;5071553;28;20021;-61
2022/09/29 05:06:52;;;;;;;11.60;3.17;;;12.90;99.90;;;;;;5071245;28;20032;-61
2022/09/29 05:09:17;;;;;;;14.70;3.50;;;12.90;99.90;;;;;;5071455;28;20441;-62
2022/09/29 05:11:43;;;;;;;8.70;3.40;;;12.90;99.90;;;;;;5070034;28;20020;-61
2022/09/29 05:14:10;;;;;;;11.63;3.05;;;13.00;99.90;;;;;;5071222;28;20042;-62
2022/09/29 05:16:35;;;;;;;13.05;3.20;;;13.00;99.90;;;;;;5072342;28;20076;-61
2022/09/29 05:19:01;;;;;;;11.38;3.17;;;13.00;99.90;;;;;;5075022;28;20059;-62
2022/09/29 05:21:27;;;;;;;11.40;3.40;;;13.00;99.90;;;;;;5075038;28;20563;-62
2022/09/29 05:23:53;;;;;;;14.00;3.70;;;13.00;99.90;;;;;;5075098;28;20025;-62
2022/09/29 05:26:19;;;;;;;12.45;3.33;;;13.00;99.90;;;;;;5075421;28;20039;-61
2022/09/29 05:28:46;;;;;;;12.80;3.25;;;13.00;99.90;;;;;;5074756;28;20029;-62
2022/09/29 05:31:13;;;;;;;13.95;3.42;;;13.00;99.90;;;;;;5074511;28;20027;-62
2022/09/29 05:33:39;;;;;;;10.07;3.28;;;13.00;99.90;;;;;;5074865;28;20043;-61
2022/09/29 05:36:10;;;;;;;12.70;3.38;;;13.00;99.90;;;;;;5074784;28;20025;-61
2022/09/29 05:38:37;;;;;;;11.65;3.08;;;13.10;99.90;;;;;;5075167;28;20402;-61
2022/09/29 05:41:04;;;;;;;10.65;3.00;;;13.00;99.90;;;;;;5074646;28;20478;-62
2022/09/29 05:43:30;;;;;;;12.02;3.20;;;13.00;99.90;;;;;;5074651;28;20120;-61
2022/09/29 05:46:03;;;;;;;13.55;3.20;;;13.00;99.90;;;;;;5074153;28;20409;-62
2022/09/29 05:48:30;;;;;;;14.80;3.50;;;13.00;99.90;;;;;;5074641;28;20120;-62
2022/09/29 05:51:05;;;;;;;11.38;3.40;;;13.00;99.90;;;;;;5074848;28;20501;-62
2022/09/29 05:53:31;;;;;;;11.43;3.22;;;13.00;99.90;;;;;;5074356;28;20089;-61
2022/09/29 05:55:56;;;;;;;10.65;3.60;;;13.00;99.90;;;;;;5074778;28;20020;-61
2022/09/29 05:58:22;;;;;;;8.32;3.40;;;13.00;99.90;;;;;;5074571;28;20509;-61
2022/09/29 06:00:48;;;;;;;12.20;3.58;;;13.00;99.90;;;;;;5073868;28;20170;-61
2022/09/29 06:03:13;;;;;;;12.70;3.72;;;13.00;99.90;;;;;;5074332;28;20020;-61
2022/09/29 06:05:39;;;;;;;10.77;3.38;;;13.00;99.90;;;;;;5074411;28;20036;-61
2022/09/29 06:08:05;;;;;;;9.32;3.05;;;13.00;99.90;;;;;;5074546;28;20029;-62
2022/09/29 06:10:32;;;;;;;10.30;3.53;;;13.00;99.90;;;;;;5074094;28;20078;-62
2022/09/29 06:13:00;;;;;;;11.13;2.92;;;13.00;99.90;;;;;;5074093;28;20514;-61
2022/09/29 06:15:25;;;;;;;12.38;3.90;;;13.00;99.90;;;;;;5073726;28;20016;-61
2022/09/29 06:17:59;;;;;;;12.07;3.85;;;13.10;99.90;;;;;;5073976;28;20044;-61
2022/09/29 06:20:25;;;;;;;13.30;3.88;;;13.10;99.90;;;;;;5073934;28;20025;-61
2022/09/29 06:22:54;;;;;;;10.55;3.40;;;13.10;99.90;;;;;;5073927;28;20028;-61
2022/09/29 06:25:21;;;;;;;9.70;3.50;;;13.10;99.90;;;;;;5074215;28;20025;-61
2022/09/29 06:27:47;;;;;;;11.82;3.53;;;13.10;99.90;;;;;;5073191;28;20486;-61
2022/09/29 06:30:13;;;;;;;11.55;3.13;;;13.20;99.90;;;;;;5073293;28;20029;-62
2022/09/29 06:32:39;;;;;;;9.63;2.90;;;13.10;99.90;;;;;;5073620;28;20030;-61
2022/09/29 06:37:51;;;;;;;9.30;2.83;;;13.00;99.90;;;;;;5073917;28;20036;-62
2022/09/29 06:40:19;;;;;;;8.20;2.90;;;13.10;99.90;;;;;;5073616;28;20032;-62
2022/09/29 06:42:45;;;;;;;17.38;3.75;;;13.10;99.90;;;;;;5073830;28;20463;-61
2022/09/29 06:45:10;;;;;;;11.40;3.20;;;13.10;99.90;;;;;;5073066;28;20078;-61
2022/09/29 06:47:36;;;;;;;11.48;3.20;;;13.20;99.90;;;;;;5073427;28;20419;-61
2022/09/29 06:50:02;;;;;;;7.75;2.72;;;13.10;99.90;;;;;;5073442;28;20021;-61
2022/09/29 06:52:28;;;;;;;10.95;3.08;;;13.20;99.90;;;;;;5073474;28;20384;-61
2022/09/29 06:54:54;;;;;;;7.43;2.92;;;13.20;99.90;;;;;;5073370;28;20025;-62
2022/09/29 06:57:19;;;;;;;9.52;2.90;;;13.20;99.90;;;;;;5073224;28;20489;-59
2022/09/29 06:59:45;;;;;;;8.40;2.90;;;13.20;99.90;;;;;;5072887;28;20024;-60
2022/09/29 07:02:11;;;;;;;14.18;3.22;;;13.20;99.90;;;;;;5073094;28;20032;-61
2022/09/29 07:04:37;;;;;;;9.18;2.65;;;13.30;99.90;;;;;;5073059;28;20031;-60
2022/09/29 07:07:02;;;;;;;12.73;2.97;;;13.30;99.90;;;;;;5072448;28;20033;-60
2022/09/29 07:09:28;;;;;;;12.38;3.45;;;13.30;99.90;;;;;;5072967;28;20029;-60
2022/09/29 07:11:55;;;;;;;10.68;2.97;;;13.40;99.90;;;;;;5072434;28;20390;-60
2022/09/29 07:14:22;;;;;;;9.88;3.08;;;13.50;99.90;;;;;;5072048;28;20028;-59
2022/09/29 07:16:48;;;;;;;12.25;2.90;;;13.50;99.90;;;;;;5072483;28;20044;-60
2022/09/29 07:19:15;;;;;;;7.82;2.60;;;13.70;99.90;;;;;;5072789;28;20028;-59
2022/09/29 07:21:40;;;;;;;11.65;3.13;;;13.70;99.90;;;;;;5072633;28;20597;-58
2022/09/29 07:24:07;;;;;;;11.25;3.30;;;13.90;99.90;;;;;;5072557;28;20104;-58
2022/09/29 07:26:33;;;;;;;15.45;3.22;;;14.00;99.90;;;;;;5072386;28;20394;-59
2022/09/29 07:28:59;;;;;;;9.18;2.55;;;14.00;99.90;;;;;;5072567;28;20037;-58
2022/09/29 07:31:24;;;;;;;11.05;2.70;;;14.20;99.90;;;;;;5072589;28;20466;-58
2022/09/29 07:33:51;;;;;;;11.05;2.65;;;14.20;99.90;;;;;;5072483;28;20037;-57
2022/09/29 07:36:19;;;;;;;9.68;2.65;;;14.10;99.90;;;;;;5072555;28;20033;-58
2022/09/29 07:38:49;;;;;;;11.80;2.33;;;14.20;99.90;;;;;;5072664;28;20055;-58
2022/09/29 07:41:17;;;;;;;11.88;2.60;;;14.30;99.90;;;;;;5072101;28;20428;-58
2022/09/29 07:43:43;;;;;;;10.38;2.25;;;14.60;99.90;;;;;;5072499;28;20394;-57
2022/09/29 07:46:09;;;;;;;8.55;2.30;;;14.50;99.90;;;;;;5072153;28;20032;-58
2022/09/29 07:48:36;;;;;;;8.93;2.35;;;14.50;99.90;;;;;;5071204;28;20036;-58
2022/09/29 07:51:06;;;;;;;6.45;2.22;;;14.70;99.90;;;;;;5072230;28;20082;-58
2022/09/29 07:53:33;;;;;;;7.63;2.38;;;14.90;99.90;;;;;;5072422;28;20490;-58
2022/09/29 07:56:10;;;;;;;9.70;2.35;;;15.90;99.90;;;;;;5071741;28;20063;-59
2022/09/29 07:58:36;;;;;;;9.05;2.17;;;18.50;99.90;;;;;;5072394;28;20025;-59
2022/09/29 08:01:05;;;;;;;7.53;1.92;;;17.20;99.90;;;;;;5071752;28;20045;-59
2022/09/29 08:03:31;;;;;;;5.95;1.95;;;17.70;99.90;;;;;;5071470;28;20051;-59
2022/09/29 08:05:58;;;;;;;6.90;1.85;;;20.50;99.90;;;;;;5070947;28;20020;-60
2022/09/29 08:08:24;;;;;;;5.15;1.90;;;21.80;99.90;;;;;;5071592;28;20036;-58
2022/09/29 08:10:51;;;;;;;3.53;1.63;;;22.40;99.90;;;;;;5071550;28;20024;-58
2022/09/29 08:13:16;;;;;;;6.35;2.10;;;20.10;99.90;;;;;;5071872;28;20103;-60
2022/09/29 08:15:42;;;;;;;6.40;1.77;;;18.90;99.90;;;;;;5071711;28;20166;-58
2022/09/29 08:18:08;;;;;;;6.53;1.63;;;18.20;99.90;;;;;;5071858;28;20032;-59
2022/09/29 08:20:36;;;;;;;5.97;1.80;;;18.80;99.90;;;;;;5071677;28;20422;-58
2022/09/29 08:23:02;;;;;;;6.05;1.80;;;21.40;99.90;;;;;;5071459;28;20031;-58
2022/09/29 08:25:27;;;;;;;5.93;1.83;;;24.40;99.90;;;;;;5070829;28;20025;-58
2022/09/29 08:27:53;;;;;;;6.22;1.30;;;24.90;99.90;;;;;;5071548;28;20047;-59
2022/09/29 08:30:19;;;;;;;6.00;1.90;;;23.30;99.90;;;;;;5071735;28;20025;-59
2022/09/29 08:32:52;;;;;;;6.60;1.85;;;22.40;99.90;;;;;;5071676;28;20025;-59
2022/09/29 08:35:18;;;;;;;6.07;1.60;;;23.40;99.90;;;;;;5070235;28;20123;-60
2022/09/29 08:37:44;;;;;;;5.03;1.50;;;23.10;99.90;;;;;;5068143;28;20025;-59
2022/09/29 08:40:11;;;;;;;6.72;2.05;;;21.00;99.90;;;;;;5069961;28;20421;-58
2022/09/29 08:43:15;;;;;;;5.78;1.75;;;22.80;99.90;;;;;;5070455;28;20036;-58
2022/09/29 08:45:57;;;;;;;5.20;1.60;;;23.50;99.90;;;;;;5058145;28;20094;-59
2022/09/29 08:48:26;;;;;;;6.43;1.80;;;24.70;99.90;;;;;;5071759;28;20043;-61
2022/09/29 08:50:57;;;;;;;4.30;1.50;;;25.00;99.90;;;;;;5070844;28;20032;-59
2022/09/29 08:53:25;;;;;;;5.80;1.50;;;22.20;99.90;;;;;;5075668;28;20024;-59
2022/09/29 08:56:08;;;;;;;6.32;1.50;;;24.60;99.90;;;;;;5075208;28;20033;-60
2022/09/29 08:58:35;;;;;;;5.32;1.30;;;24.50;99.90;;;;;;5075599;28;20094;-60
2022/09/29 09:01:09;;;;;;;3.47;1.42;;;27.10;99.90;;;;;;5075954;28;20062;-60
2022/09/29 09:03:47;;;;;;;6.82;1.52;;;25.60;99.90;;;;;;5075388;28;20081;-60
2022/09/29 09:06:28;;;;;;;4.40;1.38;;;22.90;99.90;;;;;;5075281;28;20029;-60
2022/09/29 09:09:44;;;;;;;7.50;1.70;;;22.00;99.90;;;;;;5075500;28;20032;-60
2022/09/29 09:12:31;;;;;;;6.45;1.42;;;21.20;99.90;;;;;;5013627;28;20395;-60
2022/09/29 09:15:28;;;;;;;4.47;1.50;;;21.00;99.90;;;;;;5013457;28;20042;-60
2022/09/29 09:18:21;;;;;;;3.60;1.42;;;20.90;99.90;;;;;;5009388;28;20038;-59
2022/09/29 09:21:08;;;;;;;6.72;1.67;;;23.80;99.90;;;;;;5013313;28;20100;-59
2022/09/29 09:23:45;;;;;;;5.43;1.48;;;23.60;99.90;;;;;;5013089;28;20455;-59
2022/09/29 09:26:12;;;;;;;5.72;1.45;;;24.20;99.90;;;;;;5013183;28;20044;-59
2022/09/29 09:28:56;;;;;;;4.18;1.38;;;24.90;99.90;;;;;;5012363;28;20041;-60
2022/09/29 09:31:25;;;;;;;4.65;1.60;;;24.50;99.90;;;;;;5013107;28;20113;-60
2022/09/29 09:34:12;;;;;;;4.40;1.15;;;23.80;99.90;;;;;;5012808;28;20088;-60
2022/09/29 09:36:47;;;;;;;5.63;1.63;;;22.70;99.90;;;;;;5012621;28;20067;-60
2022/09/29 09:39:43;;;;;;;3.67;1.30;;;21.30;99.90;;;;;;5011939;28;20120;-59
2022/09/29 09:42:17;;;;;;;4.22;1.52;;;20.20;99.90;;;;;;5012383;28;20057;-59
2022/09/29 09:44:54;;;;;;;7.63;1.30;;;20.30;99.90;;;;;;5011782;28;20103;-60
2022/09/29 09:47:27;;;;;;;6.03;1.50;;;20.30;99.90;;;;;;5053859;28;20040;-60
2022/09/29 09:50:14;;;;;;;6.00;1.50;;;19.60;99.90;;;;;;5054873;28;20029;-60
2022/09/29 09:52:45;;;;;;;5.88;1.70;;;18.50;99.90;;;;;;5054352;28;20226;-60
2022/09/29 09:55:27;;;;;;;8.82;1.70;;;18.40;99.90;;;;;;5054695;28;20087;-60
2022/09/29 09:58:08;;;;;;;7.15;1.60;;;18.30;99.90;;;;;;5054413;28;20025;-60
2022/09/29 10:00:45;;;;;;;5.45;1.42;;;18.50;99.90;;;;;;5054269;28;20017;-60
2022/09/29 10:03:11;;;;;;;5.63;1.40;;;18.30;99.90;;;;;;5053235;28;20434;-60
2022/09/29 10:05:48;;;;;;;5.80;1.73;;;18.30;99.90;;;;;;5054209;28;20017;-59
2022/09/29 10:08:29;;;;;;;8.23;1.70;;;18.00;99.90;;;;;;5054087;28;20083;-60
2022/09/29 10:10:56;;;;;;;5.05;1.52;;;17.50;99.90;;;;;;5060283;28;20024;-59
2022/09/29 10:13:25;;;;;;;8.10;1.63;;;17.10;99.90;;;;;;5073784;28;20025;-60
2022/09/29 10:16:11;;;;;;;6.68;1.88;;;17.20;99.90;;;;;;5073826;28;20048;-60
2022/09/29 10:18:45;;;;;;;5.32;1.42;;;17.40;99.90;;;;;;5074826;28;20033;-60
2022/09/29 10:21:40;;;;;;;3.70;1.17;;;17.00;99.90;;;;;;5074340;28;20079;-60
2022/09/29 10:24:27;;;;;;;4.75;1.60;;;16.70;99.90;;;;;;5074168;28;20112;-60
2022/09/29 10:26:56;;;;;;;7.60;1.60;;;16.30;99.90;;;;;;5074219;28;20027;-60
2022/09/29 10:29:40;;;;;;;5.28;1.50;;;16.80;99.90;;;;;;5074092;28;20036;-59
2022/09/29 10:32:35;;;;;;;7.22;1.40;;;17.00;99.90;;;;;;5073984;28;20038;-60
2022/09/29 10:35:22;;;;;;;4.93;1.40;;;17.00;99.90;;;;;;5073895;28;20021;-60
2022/09/29 10:38:04;;;;;;;3.50;1.20;;;16.90;99.90;;;;;;5073739;28;20036;-60
2022/09/29 10:40:29;;;;;;;4.22;1.52;;;17.30;99.90;;;;;;5074254;28;20024;-60
2022/09/29 10:42:56;;;;;;;4.70;1.50;;;17.60;99.90;;;;;;5073763;28;20112;-60
2022/09/29 10:45:28;;;;;;;5.28;1.55;;;18.10;99.90;;;;;;5073977;28;20024;-60
2022/09/29 10:47:56;;;;;;;3.05;1.02;;;18.20;99.90;;;;;;5073610;28;20021;-60
2022/09/29 10:50:25;;;;;;;5.13;1.13;;;17.20;99.90;;;;;;5073421;28;20030;-60
2022/09/29 10:53:00;;;;;;;4.18;1.13;;;17.60;99.90;;;;;;5073703;28;20035;-59
2022/09/29 10:55:27;;;;;;;4.32;1.10;;;18.50;99.90;;;;;;5073977;28;20032;-59
2022/09/29 10:57:57;;;;;;;3.20;1.20;;;19.20;99.90;;;;;;5073521;28;20048;-60
2022/09/29 11:00:44;;;;;;;2.17;0.98;;;18.70;99.90;;;;;;5073838;28;20024;-60
2022/09/29 11:03:22;;;;;;;2.78;0.95;;;18.20;99.90;;;;;;5073200;28;20017;-59
2022/09/29 11:05:53;;;;;;;2.72;1.10;;;17.50;99.90;;;;;;5073271;28;20033;-60
2022/09/29 11:08:24;;;;;;;1.98;0.80;;;17.80;99.90;;;;;;5073560;28;20028;-60
2022/09/29 11:11:22;;;;;;;2.92;1.10;;;17.80;99.90;;;;;;5073547;28;20050;-60
2022/09/29 11:13:48;;;;;;;2.42;0.88;;;17.60;99.90;;;;;;5073111;28;20028;-60
2022/09/29 11:16:16;;;;;;;2.05;0.90;;;17.20;99.90;;;;;;5072803;28;20411;-60
2022/09/29 11:18:45;;;;;;;4.28;1.20;;;17.40;99.90;;;;;;5072768;28;20052;-60
2022/09/29 11:21:23;;;;;;;1.88;0.93;;;17.10;99.90;;;;;;5073738;28;20024;-60
2022/09/29 11:24:07;;;;;;;3.30;0.90;;;16.70;99.90;;;;;;5072976;28;20103;-60
2022/09/29 11:26:51;;;;;;;2.75;1.17;;;17.10;99.90;;;;;;5072773;28;20105;-59
2022/09/29 11:29:35;;;;;;;3.95;1.30;;;17.50;99.90;;;;;;5072857;28;20112;-60
2022/09/29 11:32:03;;;;;;;;;;;18.20;99.90;;;;;;5073117;28;20475;-60
2022/09/29 11:35:11;;;;;;;5.05;1.20;;;17.40;99.90;;;;;;5072066;28;19904;-60
2022/09/29 11:37:57;;;;;;;2.85;1.00;;;17.90;99.90;;;;;;5072583;28;20047;-60
2022/09/29 11:40:41;;;;;;;2.28;0.98;;;17.50;99.90;;;;;;5072535;28;20504;-60
2022/09/29 11:43:20;;;;;;;6.43;1.40;;;17.10;99.90;;;;;;5072998;28;20021;-59
2022/09/29 11:45:51;;;;;;;2.30;0.77;;;16.80;99.90;;;;;;5072639;28;20036;-59
2022/09/29 11:48:38;;;;;;;3.92;1.10;;;16.70;99.90;;;;;;5070891;28;20040;-59
2022/09/29 11:51:12;;;;;;;3.97;1.25;;;17.00;99.90;;;;;;5072555;28;20025;-59
2022/09/29 11:53:56;;;;;;;4.32;1.20;;;16.60;99.90;;;;;;5072932;28;20501;-60
2022/09/29 11:57:15;;;;;;;4.65;1.30;;;16.40;99.90;;;;;;5072415;28;20537;-59
2022/09/29 11:59:51;;;;;;;3.63;1.00;;;16.50;99.90;;;;;;4991230;28;20069;-60
2022/09/29 12:02:41;;;;;;;3.53;1.13;;;16.60;99.90;;;;;;4990609;28;20138;-60
2022/09/29 12:05:26;;;;;;;3.20;1.10;;;17.00;99.90;;;;;;4990971;28;20145;-60
2022/09/29 12:08:00;;;;;;;3.90;1.20;;;17.10;99.90;;;;;;4990820;28;20508;-60
2022/09/29 12:10:35;;;;;;;2.97;1.00;;;17.60;99.90;;;;;;4990701;28;20391;-60
2022/09/29 12:13:22;;;;;;;2.13;0.90;;;17.30;99.90;;;;;;4990930;28;20057;-59
2022/09/29 12:15:56;;;;;;;4.10;1.55;;;17.30;99.90;;;;;;4990476;28;20084;-60
2022/09/29 12:18:31;;;;;;;4.90;1.40;;;17.20;99.90;;;;;;4990798;28;20029;-60
2022/09/29 12:20:57;;;;;;;2.85;1.10;;;17.30;99.90;;;;;;4990950;28;20220;-60
2022/09/29 12:23:26;;;;;;;4.50;1.27;;;16.80;99.90;;;;;;4990680;28;20057;-60
2022/09/29 12:26:04;;;;;;;3.38;1.23;;;16.60;99.90;;;;;;4990156;28;20405;-59
2022/09/29 12:28:44;;;;;;;4.28;1.15;;;16.40;99.90;;;;;;4990491;28;20046;-60
2022/09/29 12:31:26;;;;;;;4.57;1.20;;;16.20;99.90;;;;;;4990103;28;20026;-60
2022/09/29 12:34:09;;;;;;;4.43;1.20;;;16.00;99.90;;;;;;5027063;28;20041;-60
2022/09/29 12:36:42;;;;;;;3.28;1.20;;;16.10;99.90;;;;;;5052057;28;20104;-60
2022/09/29 12:39:32;;;;;;;3.80;1.02;;;16.00;99.90;;;;;;5051817;28;20032;-60
2022/09/29 12:42:38;;;;;;;3.97;1.13;;;16.00;99.90;;;;;;5051920;28;20069;-59
2022/09/29 12:45:13;;;;;;;3.90;1.00;;;15.80;99.90;;;;;;4999970;28;20535;-59
2022/09/29 12:47:57;;;;;;;3.30;1.23;;;15.80;99.90;;;;;;5009728;28;20054;-59
2022/09/29 12:50:40;;;;;;;6.80;1.40;;;15.60;99.90;;;;;;5009767;28;20168;-60
2022/09/29 12:53:12;;;;;;;11.23;1.58;;;15.10;99.90;;;;;;5009925;28;20108;-59
2022/09/29 12:55:43;;;;;;;3.88;1.20;;;15.10;99.90;;;;;;5009996;28;20030;-59
2022/09/29 12:58:18;;;;;;;19.75;2.13;;;14.60;99.90;;;;;;5009890;28;20073;-59
2022/09/29 13:00:48;;;;;;;4.50;1.10;;;14.50;99.90;;;;;;5009529;28;20041;-59
2022/09/29 13:03:34;;;;;;;3.65;1.10;;;14.00;99.90;;;;;;5010283;28;20033;-59
2022/09/29 13:06:38;;;;;;;3.55;1.27;;;13.90;99.90;;;;;;5009801;28;20032;-59
2022/09/29 13:09:18;;;;;;;3.78;1.20;;;13.90;99.90;;;;;;4894521;29;20048;-59
2022/09/29 13:12:03;;;;;;;2.65;0.98;;;14.00;99.90;;;;;;4894611;29;20097;-60
2022/09/29 13:14:46;;;;;;;3.15;1.08;;;14.10;99.90;;;;;;4894526;29;20143;-59